Pagrindinis puslapis
METAR-TAF:

METAR-TAF

Oro uostai :

Valdivija, Čilė

platuma: 39-37S, ilguma: 073-05W, Aukštis: 19 m

Dabartinis oras

Ataskaita buvo paskelbta 36 minutes, ne 13:00 UTC
Vėjas 3 kt nuo kintamojo kryptimis
Temperatūra 12°C
Drėgmė 82%
Slėgis 1028 hPa
Matomumas 10 km arba daugiau
Išsisklaidę debesys ne aukštis 3000 ft

METAR: SCVD 171300Z VRB03KT 9999 SCT030 12/09 Q1028

Laikas: 10:36 (13:36 UTC)


TAF: trūkstamas

Orai ataskaitas ir orų prognozės (METAR, TAF).

turimą stotys yra geltonos ir raudonos taškus žemėlapyje.

Perkelti pele per norėdami pamatyti stoties vardą.

Tada spustelėkite, norėdami matyti oro stebėjimo ir prognozės.

Norėdami pakeisti žemėlapį: spustelėkite ant žalios mygtukų su juodo kryžiaus žemyn,; žalią mygtuką su brūkšneliu, jei norite nutolinti; arba žalių rodyklių gretimoms žemėlapius.


METAR-TAF: